createdAt,value
2019-05-30T00:00:17.894Z,71.21
2019-05-30T00:02:47.998Z,70.95
2019-05-30T00:05:21.888Z,71.27
2019-05-30T00:07:52.244Z,71.53
2019-05-30T00:10:22.603Z,71.70
2019-05-30T00:12:54.571Z,71.12
2019-05-30T00:15:27.109Z,71.16
2019-05-30T00:17:59.002Z,71.05
2019-05-30T00:20:29.800Z,70.93
2019-05-30T00:23:02.832Z,71.04
2019-05-30T00:25:34.966Z,70.99
2019-05-30T00:28:06.047Z,70.85
2019-05-30T00:30:36.786Z,70.96
2019-05-30T00:33:07.180Z,70.79
2019-05-30T00:35:40.076Z,70.15
2019-05-30T00:38:10.377Z,70.46
2019-05-30T00:40:40.746Z,70.34
2019-05-30T00:43:11.122Z,70.13
2019-05-30T00:45:41.457Z,69.88
2019-05-30T00:48:11.802Z,70.20
2019-05-30T00:50:42.078Z,70.29
2019-05-30T00:53:12.508Z,69.90
2019-05-30T00:55:42.913Z,69.69
2019-05-30T00:58:14.508Z,69.61
2019-05-30T01:00:46.023Z,68.79
2019-05-30T01:03:16.331Z,69.08
2019-05-30T01:05:46.605Z,69.43
2019-05-30T01:08:20.061Z,69.66
2019-05-30T01:10:50.373Z,69.47
2019-05-30T01:13:20.619Z,69.64
2019-05-30T01:15:51.309Z,69.95
2019-05-30T01:18:21.860Z,68.75
2019-05-30T01:20:52.394Z,69.33
2019-05-30T01:23:23.948Z,69.81
2019-05-30T01:25:55.358Z,69.66
2019-05-30T01:28:25.786Z,69.79
2019-05-30T01:31:03.070Z,69.78
2019-05-30T01:33:28.924Z,69.85
2019-05-30T01:35:59.779Z,69.96
2019-05-30T01:38:30.002Z,70.18
2019-05-30T01:41:02.422Z,69.98
2019-05-30T01:43:32.865Z,69.77
2019-05-30T01:46:04.275Z,69.62
2019-05-30T01:48:34.775Z,69.02
2019-05-30T01:51:06.619Z,68.73
2019-05-30T01:53:36.892Z,68.30
2019-05-30T01:56:08.852Z,67.97
2019-05-30T01:58:40.648Z,68.34
2019-05-30T02:01:24.324Z,68.77
2019-05-30T02:03:46.008Z,68.10
2019-05-30T02:06:16.637Z,68.35
2019-05-30T02:08:47.124Z,68.42
2019-05-30T02:11:17.695Z,67.75
2019-05-30T02:13:47.921Z,68.10
2019-05-30T02:16:18.559Z,68.02
2019-05-30T02:18:49.953Z,68.22
2019-05-30T02:21:21.895Z,68.54
2019-05-30T02:23:52.137Z,68.38
2019-05-30T02:26:22.793Z,68.05
2019-05-30T02:28:53.107Z,67.71
2019-05-30T02:31:38.327Z,68.07
2019-05-30T02:33:56.608Z,67.87
2019-05-30T02:36:28.179Z,68.04
2019-05-30T02:38:58.766Z,67.84
2019-05-30T02:41:30.188Z,68.35
2019-05-30T02:44:01.204Z,67.71
2019-05-30T02:46:32.136Z,67.75
2019-05-30T02:49:04.912Z,67.79
2019-05-30T02:51:37.516Z,68.26
2019-05-30T02:54:09.306Z,68.71
2019-05-30T02:56:39.877Z,68.66
2019-05-30T02:59:11.556Z,68.79
2019-05-30T03:01:59.846Z,68.72
2019-05-30T03:04:14.987Z,68.62
2019-05-30T03:06:46.039Z,68.28
2019-05-30T03:09:16.869Z,68.12
2019-05-30T03:11:48.085Z,67.96
2019-05-30T03:14:19.989Z,67.98
2019-05-30T03:16:52.052Z,67.88
2019-05-30T03:19:22.309Z,67.94
2019-05-30T03:21:52.675Z,68.06
2019-05-30T03:24:23.104Z,68.04
2019-05-30T03:26:53.785Z,68.21
2019-05-30T03:29:24.034Z,68.30
2019-05-30T03:31:56.438Z,67.91
2019-05-30T03:34:29.139Z,67.94
2019-05-30T03:36:59.243Z,68.18
2019-05-30T03:39:31.440Z,68.22
2019-05-30T03:42:01.834Z,68.26
2019-05-30T03:44:32.154Z,68.50
2019-05-30T03:47:06.296Z,68.33
2019-05-30T03:49:41.865Z,68.39
2019-05-30T03:52:17.251Z,68.49
2019-05-30T03:54:48.292Z,68.54
2019-05-30T03:57:24.079Z,68.49
2019-05-30T04:00:00.712Z,68.51
2019-05-30T04:02:56.017Z,68.56
2019-05-30T04:05:27.007Z,68.44
2019-05-30T04:08:00.239Z,67.86
2019-05-30T04:10:35.734Z,68.03
2019-05-30T04:13:14.139Z,68.14
2019-05-30T04:15:44.136Z,67.89
2019-05-30T04:18:16.447Z,67.91
2019-05-30T04:20:48.175Z,68.15
2019-05-30T04:23:19.702Z,68.22
2019-05-30T04:25:50.329Z,68.06
2019-05-30T04:28:21.095Z,68.04
2019-05-30T04:30:51.582Z,68.31
2019-05-30T04:33:32.726Z,68.39
2019-05-30T04:35:54.829Z,68.31
2019-05-30T04:38:26.439Z,68.55
2019-05-30T04:40:57.454Z,68.59
2019-05-30T04:43:30.096Z,67.69
2019-05-30T04:46:00.780Z,67.97
2019-05-30T04:48:31.141Z,67.84
2019-05-30T04:51:02.668Z,68.07
2019-05-30T04:53:34.155Z,68.27
2019-05-30T04:56:04.472Z,68.07
2019-05-30T04:58:35.179Z,67.92
2019-05-30T05:01:05.442Z,68.08
2019-05-30T05:03:45.876Z,68.20
2019-05-30T05:06:07.913Z,68.33
2019-05-30T05:08:38.403Z,68.29
2019-05-30T05:11:12.499Z,68.32
2019-05-30T05:13:41.062Z,68.02
2019-05-30T05:16:24.374Z,68.20
2019-05-30T05:18:45.984Z,67.70
2019-05-30T05:21:17.517Z,67.92
2019-05-30T05:23:47.868Z,67.97
2019-05-30T05:26:19.517Z,67.53
2019-05-30T05:28:50.303Z,67.35
2019-05-30T05:31:20.670Z,67.13
2019-05-30T05:33:56.514Z,66.94
2019-05-30T05:36:23.701Z,67.50
2019-05-30T05:38:54.702Z,67.42
2019-05-30T05:41:25.302Z,67.17
2019-05-30T05:43:56.580Z,67.50
2019-05-30T05:46:27.085Z,67.78
2019-05-30T05:48:58.249Z,67.61
2019-05-30T05:51:29.032Z,67.22
2019-05-30T05:54:00.232Z,66.95
2019-05-30T05:56:30.693Z,66.69
2019-05-30T05:59:01.289Z,66.33
2019-05-30T06:01:31.631Z,66.50
2019-05-30T06:04:12.507Z,66.75
2019-05-30T06:06:35.122Z,66.62
2019-05-30T06:09:08.331Z,66.29
2019-05-30T06:11:38.608Z,65.83
2019-05-30T06:14:09.288Z,65.85
2019-05-30T06:16:39.642Z,65.66
2019-05-30T06:19:10.344Z,65.79
2019-05-30T06:21:53.458Z,65.18
2019-05-30T06:24:13.783Z,65.21
2019-05-30T06:26:44.053Z,64.85
2019-05-30T06:29:14.889Z,64.41
2019-05-30T06:31:45.205Z,63.59
2019-05-30T06:34:29.276Z,63.27
2019-05-30T06:36:49.187Z,63.88
2019-05-30T06:39:19.756Z,63.40
2019-05-30T06:41:50.388Z,63.67
2019-05-30T06:44:21.854Z,64.34
2019-05-30T06:46:52.211Z,64.28
2019-05-30T06:49:22.911Z,64.08
2019-05-30T06:51:54.037Z,64.20
2019-05-30T06:54:25.884Z,64.01
2019-05-30T06:56:57.558Z,63.92
2019-05-30T06:59:27.958Z,63.76
2019-05-30T07:01:58.592Z,63.38
2019-05-30T07:04:40.362Z,63.55
2019-05-30T07:07:01.765Z,63.23
2019-05-30T07:09:33.022Z,62.71
2019-05-30T07:12:04.058Z,61.88
2019-05-30T07:14:34.389Z,60.79
2019-05-30T07:17:06.557Z,59.41
2019-05-30T07:19:37.919Z,58.01
2019-05-30T07:22:09.306Z,56.88
2019-05-30T07:24:39.765Z,56.62
2019-05-30T07:27:10.633Z,55.89
2019-05-30T07:29:42.380Z,56.75
2019-05-30T07:32:13.575Z,57.19
2019-05-30T07:34:47.048Z,57.11
2019-05-30T07:37:17.290Z,57.21
2019-05-30T07:39:47.684Z,57.09
2019-05-30T07:42:18.025Z,56.37
2019-05-30T07:44:51.351Z,55.47
2019-05-30T07:47:21.592Z,55.13
2019-05-30T07:49:51.874Z,54.62
2019-05-30T07:52:22.187Z,54.99
2019-05-30T07:54:52.569Z,54.73
2019-05-30T07:57:23.721Z,55.20
2019-05-30T07:59:54.377Z,55.16
2019-05-30T08:02:25.193Z,54.43
2019-05-30T08:04:56.837Z,54.30
2019-05-30T08:07:28.478Z,54.76
2019-05-30T08:10:00.142Z,55.86
2019-05-30T08:12:32.058Z,56.68
2019-05-30T08:15:03.249Z,57.87
2019-05-30T08:17:33.748Z,58.30
2019-05-30T08:20:07.403Z,58.74
2019-05-30T08:22:38.937Z,58.93
2019-05-30T08:25:10.438Z,58.76
2019-05-30T08:27:41.199Z,58.71
2019-05-30T08:30:14.505Z,58.29
2019-05-30T08:32:44.823Z,58.38
2019-05-30T08:35:16.070Z,59.18
2019-05-30T08:37:46.381Z,60.48
2019-05-30T08:40:20.012Z,60.60
2019-05-30T08:42:50.580Z,61.25
2019-05-30T08:45:22.812Z,61.92
2019-05-30T08:47:53.628Z,61.80
2019-05-30T08:50:24.782Z,62.01
2019-05-30T08:52:55.023Z,61.86
2019-05-30T08:55:25.611Z,62.39
2019-05-30T08:57:56.519Z,61.94
2019-05-30T09:00:28.403Z,61.75
2019-05-30T09:02:58.709Z,61.65
2019-05-30T09:05:30.552Z,61.09
2019-05-30T09:08:00.893Z,59.43
2019-05-30T09:10:31.251Z,57.72
2019-05-30T09:13:02.761Z,57.21
2019-05-30T09:15:34.887Z,55.67
2019-05-30T09:18:05.472Z,54.81
2019-05-30T09:20:39.784Z,53.79
2019-05-30T09:23:10.547Z,54.26
2019-05-30T09:25:41.603Z,54.23
2019-05-30T09:28:12.094Z,54.31
2019-05-30T09:30:43.192Z,55.36
2019-05-30T09:33:14.175Z,55.96
2019-05-30T09:35:44.988Z,56.27
2019-05-30T09:38:16.334Z,55.74
2019-05-30T09:40:49.631Z,54.77
2019-05-30T09:43:20.140Z,54.00
2019-05-30T09:45:50.498Z,53.50
2019-05-30T09:48:21.199Z,53.14
2019-05-30T09:50:52.008Z,52.43
2019-05-30T09:53:22.650Z,51.58
2019-05-30T09:55:53.938Z,51.09
2019-05-30T09:58:24.264Z,50.43
2019-05-30T10:00:56.744Z,49.87
2019-05-30T10:03:28.696Z,49.69
2019-05-30T10:05:59.325Z,49.50
2019-05-30T10:08:30.158Z,49.51
2019-05-30T10:11:03.840Z,49.38
2019-05-30T10:13:34.163Z,49.47
2019-05-30T10:16:05.073Z,49.95
2019-05-30T10:18:35.824Z,49.89
2019-05-30T10:21:06.413Z,50.43
2019-05-30T10:23:38.706Z,50.78
2019-05-30T10:26:09.089Z,51.38
2019-05-30T10:28:39.348Z,52.39
2019-05-30T10:31:12.587Z,52.69
2019-05-30T10:33:42.832Z,52.74
2019-05-30T10:36:14.770Z,52.63
2019-05-30T10:38:45.436Z,52.46
2019-05-30T10:41:18.136Z,50.95
2019-05-30T10:43:49.116Z,50.21
2019-05-30T10:46:19.802Z,49.26
2019-05-30T10:48:50.968Z,48.06
2019-05-30T10:51:22.032Z,46.23
2019-05-30T10:53:53.921Z,46.19
2019-05-30T10:56:24.852Z,45.89
2019-05-30T10:58:55.173Z,45.74
2019-05-30T11:01:26.986Z,45.74
2019-05-30T11:03:57.297Z,45.96
2019-05-30T11:07:07.594Z,45.60
2019-05-30T11:09:30.325Z,45.04
2019-05-30T11:12:02.306Z,45.33
2019-05-30T11:14:32.753Z,44.53
2019-05-30T11:17:03.271Z,43.96
2019-05-30T11:19:33.680Z,43.94
2019-05-30T11:22:04.671Z,43.87
2019-05-30T11:24:35.447Z,44.37
2019-05-30T11:27:06.381Z,44.55
2019-05-30T11:29:36.702Z,45.04
2019-05-30T11:32:08.260Z,45.23
2019-05-30T11:34:38.573Z,45.08
2019-05-30T11:39:41.895Z,45.04
2019-05-30T11:42:12.820Z,44.33
2019-05-30T11:44:43.068Z,44.17
2019-05-30T11:47:14.960Z,43.61
2019-05-30T11:49:45.270Z,43.23
2019-05-30T11:52:15.997Z,42.86
2019-05-30T11:54:46.689Z,43.52
2019-05-30T11:57:17.343Z,42.94
2019-05-30T11:59:47.705Z,41.98
2019-05-30T12:02:18.988Z,41.05
2019-05-30T12:04:50.428Z,40.69
2019-05-30T12:07:35.784Z,40.38
2019-05-30T12:09:55.303Z,40.08
2019-05-30T12:12:26.114Z,40.07
2019-05-30T12:14:57.352Z,40.29
2019-05-30T12:17:30.653Z,41.28
2019-05-30T12:20:01.884Z,42.47
2019-05-30T12:22:33.448Z,43.30
2019-05-30T12:25:05.697Z,44.18
2019-05-30T12:27:36.957Z,44.85
2019-05-30T12:30:11.434Z,44.98
2019-05-30T12:32:43.030Z,45.27
2019-05-30T12:35:14.470Z,46.03
2019-05-30T12:37:54.679Z,46.55
2019-05-30T12:40:21.307Z,47.42
2019-05-30T12:42:54.501Z,47.66
2019-05-30T12:45:24.076Z,47.82
2019-05-30T12:47:55.113Z,47.84
2019-05-30T12:50:27.022Z,47.78
2019-05-30T12:53:01.991Z,47.64
2019-05-30T12:55:32.691Z,47.63
2019-05-30T12:58:03.875Z,47.49
2019-05-30T13:00:37.183Z,47.12
2019-05-30T13:03:07.793Z,46.93
2019-05-30T13:05:38.102Z,46.62
2019-05-30T13:08:20.444Z,46.39
2019-05-30T13:10:41.232Z,45.75
2019-05-30T13:13:12.441Z,45.09
2019-05-30T13:15:42.771Z,44.99
2019-05-30T13:18:13.036Z,45.16
2019-05-30T13:20:43.326Z,45.14
2019-05-30T13:23:15.101Z,45.38
2019-05-30T13:25:45.849Z,45.46
2019-05-30T13:28:16.752Z,45.06
2019-05-30T13:30:48.256Z,45.36
2019-05-30T13:33:19.736Z,45.35
2019-05-30T13:35:50.076Z,45.61
2019-05-30T13:38:26.830Z,45.17
2019-05-30T13:40:57.381Z,44.98
2019-05-30T13:43:28.215Z,44.47
2019-05-30T13:45:58.639Z,44.33
2019-05-30T13:48:29.332Z,43.81
2019-05-30T13:51:01.234Z,43.38
2019-05-30T13:53:31.760Z,43.72
2019-05-30T13:56:03.218Z,43.02
2019-05-30T13:58:34.552Z,42.98
2019-05-30T14:01:10.495Z,42.78
2019-05-30T14:03:38.831Z,42.97
2019-05-30T14:06:11.149Z,42.88
2019-05-30T14:08:42.238Z,42.53
2019-05-30T14:11:13.607Z,42.23
2019-05-30T14:13:45.363Z,41.62
2019-05-30T14:16:15.585Z,41.23
2019-05-30T14:18:46.201Z,40.76
2019-05-30T14:21:16.576Z,40.08
2019-05-30T14:23:47.553Z,40.55
2019-05-30T14:26:19.170Z,40.68
2019-05-30T14:28:50.005Z,40.78
2019-05-30T14:31:20.724Z,40.88
2019-05-30T14:33:51.551Z,41.31
2019-05-30T14:36:21.854Z,41.65
2019-05-30T14:38:58.550Z,41.79
2019-05-30T14:41:24.682Z,41.92
2019-05-30T14:43:56.338Z,42.07
2019-05-30T14:46:26.583Z,41.77
2019-05-30T14:48:57.400Z,41.71
2019-05-30T14:51:27.817Z,42.26
2019-05-30T14:53:59.266Z,42.35
2019-05-30T14:56:29.509Z,41.90
2019-05-30T14:58:59.774Z,41.78
2019-05-30T15:01:30.064Z,41.61
2019-05-30T15:04:00.728Z,41.49
2019-05-30T15:06:31.034Z,40.92
2019-05-30T15:09:15.274Z,41.04
2019-05-30T15:11:33.672Z,41.21
2019-05-30T15:14:08.748Z,41.16
2019-05-30T15:16:39.158Z,40.83
2019-05-30T15:19:10.314Z,41.03
2019-05-30T15:21:40.727Z,41.47
2019-05-30T15:24:12.876Z,41.18
2019-05-30T15:26:45.060Z,41.09
2019-05-30T15:29:16.299Z,40.84
2019-05-30T15:31:47.181Z,40.78
2019-05-30T15:34:19.075Z,40.98
2019-05-30T15:36:49.787Z,42.96
2019-05-30T15:39:32.484Z,43.15
2019-05-30T15:41:53.323Z,44.07
2019-05-30T15:44:24.832Z,45.64
2019-05-30T15:46:55.093Z,46.91
2019-05-30T15:49:26.538Z,45.96
2019-05-30T15:51:56.876Z,44.86
2019-05-30T15:54:28.892Z,45.20
2019-05-30T15:57:00.441Z,44.31
2019-05-30T15:59:31.114Z,43.75
2019-05-30T16:02:01.394Z,45.03
2019-05-30T16:04:32.494Z,44.85
2019-05-30T16:07:03.168Z,45.17
2019-05-30T16:09:46.282Z,45.39
2019-05-30T16:12:06.451Z,44.92
2019-05-30T16:14:37.659Z,45.99
2019-05-30T16:17:09.762Z,45.86
2019-05-30T16:19:40.909Z,46.63
2019-05-30T16:22:12.260Z,46.05
2019-05-30T16:24:43.855Z,45.51
2019-05-30T16:27:14.143Z,44.32
2019-05-30T16:29:45.012Z,44.52
2019-05-30T16:32:15.894Z,44.46
2019-05-30T16:34:47.220Z,45.06
2019-05-30T16:37:18.152Z,47.16
2019-05-30T16:40:04.666Z,46.41
2019-05-30T16:42:20.517Z,47.03
2019-05-30T16:44:52.075Z,46.18
2019-05-30T16:47:22.695Z,46.71
2019-05-30T16:49:52.975Z,46.56
2019-05-30T16:52:24.391Z,46.21
2019-05-30T16:54:56.849Z,45.86
2019-05-30T16:57:27.153Z,46.10
2019-05-30T16:59:57.598Z,45.54
2019-05-30T17:02:27.905Z,46.59
2019-05-30T17:04:59.763Z,46.49
2019-05-30T17:07:30.181Z,45.37
2019-05-30T17:10:02.243Z,45.03
2019-05-30T17:12:32.844Z,44.42
2019-05-30T17:15:04.973Z,44.07
2019-05-30T17:17:35.213Z,44.08
2019-05-30T17:20:07.873Z,43.09
2019-05-30T17:22:38.275Z,44.40
2019-05-30T17:25:11.571Z,44.18
2019-05-30T17:27:42.860Z,44.50
2019-05-30T17:30:19.522Z,44.38
2019-05-30T17:32:50.705Z,44.10
2019-05-30T17:35:22.078Z,44.03
2019-05-30T17:37:52.498Z,43.50
2019-05-30T17:40:40.208Z,44.11
2019-05-30T17:42:55.832Z,44.56
2019-05-30T17:45:27.563Z,44.46
2019-05-30T17:48:13.440Z,44.30
2019-05-30T17:50:33.029Z,44.54
2019-05-30T17:53:03.449Z,44.61
2019-05-30T17:55:37.312Z,44.46
2019-05-30T17:58:10.406Z,44.07
2019-05-30T18:00:39.463Z,44.25
2019-05-30T18:03:09.854Z,44.60
2019-05-30T18:05:41.204Z,44.33
2019-05-30T18:08:13.322Z,44.36
2019-05-30T18:10:53.242Z,44.33
2019-05-30T18:13:15.754Z,44.88
2019-05-30T18:15:47.986Z,45.94
2019-05-30T18:18:21.180Z,44.78
2019-05-30T18:20:52.666Z,46.41
2019-05-30T18:23:23.507Z,45.30
2019-05-30T18:25:54.576Z,46.74
2019-05-30T18:28:25.808Z,44.87
2019-05-30T18:30:56.083Z,44.82
2019-05-30T18:33:26.531Z,45.87
2019-05-30T18:35:58.209Z,45.00
2019-05-30T18:38:28.520Z,45.20
2019-05-30T18:41:11.091Z,44.80
2019-05-30T18:43:31.399Z,45.06
2019-05-30T18:46:02.849Z,45.07
2019-05-30T18:48:33.493Z,45.11
2019-05-30T18:51:04.114Z,45.25
2019-05-30T18:53:34.359Z,45.09
2019-05-30T18:56:07.522Z,45.19
2019-05-30T18:58:40.764Z,44.86
2019-05-30T19:01:11.408Z,45.22
2019-05-30T19:03:42.770Z,45.64
2019-05-30T19:06:14.650Z,50.11
2019-05-30T19:08:44.968Z,49.64
2019-05-30T19:11:27.254Z,48.77
2019-05-30T19:13:49.635Z,47.64
2019-05-30T19:16:20.888Z,46.83
2019-05-30T19:18:52.053Z,47.09
2019-05-30T19:21:23.414Z,47.34
2019-05-30T19:23:54.139Z,46.93
2019-05-30T19:26:24.603Z,47.47
2019-05-30T19:28:57.874Z,47.25
2019-05-30T19:31:28.795Z,47.35
2019-05-30T19:34:00.087Z,46.92
2019-05-30T19:36:31.092Z,46.63
2019-05-30T19:39:01.541Z,46.74
2019-05-30T19:41:46.024Z,47.15
2019-05-30T19:44:07.068Z,47.79
2019-05-30T19:46:38.429Z,48.51
2019-05-30T19:49:09.247Z,49.08
2019-05-30T19:51:41.049Z,49.41
2019-05-30T19:54:11.290Z,49.91
2019-05-30T19:56:43.640Z,50.09
2019-05-30T19:59:14.360Z,50.56
2019-05-30T20:01:46.531Z,50.91
2019-05-30T20:04:17.215Z,51.00
2019-05-30T20:06:49.437Z,51.43
2019-05-30T20:09:19.682Z,51.66
2019-05-30T20:12:02.822Z,51.89
2019-05-30T20:14:23.422Z,51.59
2019-05-30T20:16:53.890Z,51.98
2019-05-30T20:19:25.525Z,52.25
2019-05-30T20:21:58.821Z,52.50
2019-05-30T20:24:29.585Z,52.61
2019-05-30T20:27:00.099Z,52.72
2019-05-30T20:29:32.844Z,52.81
2019-05-30T20:32:03.872Z,52.84
2019-05-30T20:34:34.851Z,52.95
2019-05-30T20:37:07.235Z,53.15
2019-05-30T20:39:38.625Z,53.20
2019-05-30T20:42:19.198Z,53.30
2019-05-30T20:44:43.590Z,53.34
2019-05-30T20:47:14.762Z,53.54
2019-05-30T20:49:45.009Z,53.62
2019-05-30T20:52:19.811Z,53.75
2019-05-30T20:54:50.059Z,54.02
2019-05-30T20:57:20.877Z,54.06
2019-05-30T20:59:51.518Z,54.38
2019-05-30T21:02:22.648Z,54.58
2019-05-30T21:04:53.031Z,54.60
2019-05-30T21:07:24.514Z,54.83
2019-05-30T21:09:55.822Z,54.90
2019-05-30T21:12:37.763Z,55.12
2019-05-30T21:15:03.210Z,55.50
2019-05-30T21:17:35.798Z,56.32
2019-05-30T21:20:11.301Z,56.45
2019-05-30T21:22:42.229Z,57.03
2019-05-30T21:25:14.037Z,57.02
2019-05-30T21:27:45.239Z,57.86
2019-05-30T21:30:17.303Z,58.43
2019-05-30T21:32:48.853Z,58.76
2019-05-30T21:35:20.245Z,59.50
2019-05-30T21:37:50.619Z,60.14
2019-05-30T21:40:20.860Z,60.47
2019-05-30T21:43:05.053Z,60.58
2019-05-30T21:45:24.097Z,60.04
2019-05-30T21:47:55.005Z,60.79
2019-05-30T21:50:25.657Z,61.07
2019-05-30T21:52:56.032Z,61.58
2019-05-30T21:55:26.343Z,61.23
2019-05-30T21:57:59.697Z,61.31
2019-05-30T22:00:50.892Z,61.87
2019-05-30T22:03:21.889Z,60.97
2019-05-30T22:05:52.788Z,61.25
2019-05-30T22:08:25.768Z,62.03
2019-05-30T22:10:56.018Z,62.49
2019-05-30T22:13:27.171Z,62.87
2019-05-30T22:15:57.549Z,62.97
2019-05-30T22:18:29.103Z,62.12
2019-05-30T22:20:59.413Z,62.80
2019-05-30T22:23:29.704Z,63.21
2019-05-30T22:26:00.016Z,63.30
2019-05-30T22:28:30.943Z,63.44
2019-05-30T22:31:01.240Z,63.77
2019-05-30T22:33:31.729Z,63.82
2019-05-30T22:36:02.122Z,64.11
2019-05-30T22:38:33.290Z,63.89
2019-05-30T22:41:03.598Z,64.22
2019-05-30T22:43:33.944Z,64.36
2019-05-30T22:46:04.337Z,64.87
2019-05-30T22:48:34.680Z,65.27
2019-05-30T22:51:05.702Z,65.41
2019-05-30T22:53:36.111Z,65.62
2019-05-30T22:56:07.328Z,65.71
2019-05-30T22:58:37.689Z,65.83
2019-05-30T23:01:08.041Z,65.78
2019-05-30T23:03:38.303Z,65.95
2019-05-30T23:06:08.656Z,66.08
2019-05-30T23:08:39.606Z,66.21
2019-05-30T23:11:10.024Z,66.58
2019-05-30T23:13:40.923Z,66.68
2019-05-30T23:16:13.019Z,66.82
2019-05-30T23:18:43.342Z,65.75
2019-05-30T23:21:14.441Z,66.38
2019-05-30T23:23:46.849Z,66.39
2019-05-30T23:26:17.848Z,66.67
2019-05-30T23:28:50.032Z,66.97
2019-05-30T23:31:22.361Z,66.26
2019-05-30T23:33:52.687Z,64.60
2019-05-30T23:36:24.000Z,64.57
2019-05-30T23:38:54.920Z,65.06
2019-05-30T23:41:25.985Z,64.64
2019-05-30T23:44:08.872Z,64.54
2019-05-30T23:46:31.081Z,64.42
2019-05-30T23:49:01.332Z,64.96
2019-05-30T23:51:32.457Z,65.51
2019-05-30T23:54:03.619Z,66.18
2019-05-30T23:56:34.319Z,66.33
2019-05-30T23:59:04.587Z,66.67
